Time;durP1;ratioP1;P1;durP2;ratioP2;P2;SDS_P1;SDS_P2;PMS_P1;PMS_P2;Temp;Humidity;BMP_temperature;BMP_pressure;BME280_temperature;BME280_humidity;BME280_pressure;Samples;Min_cycle;Max_cycle;Signal;HPM_P1;HPM_P2
2024/04/04 00:00:08;;;;;;;1.20;0.30;;;;;;;;;;4965971;28;20443;-65
2024/04/04 00:02:33;;;;;;;0.57;0.30;;;;;;;;;;4951588;28;20038;-65
2024/04/04 00:05:02;;;;;;;0.65;0.35;;;;;;;;;;5065143;28;20415;-64
2024/04/04 00:07:27;;;;;;;0.93;0.30;;;;;;;;;;5073385;28;20037;-63
2024/04/04 00:09:52;;;;;;;1.30;0.40;;;;;;;;;;5073288;28;20024;-64
2024/04/04 00:12:19;;;;;;;1.37;0.30;;;;;;;;;;5072143;28;20029;-64
2024/04/04 00:14:44;;;;;;;0.90;0.20;;;;;;;;;;5071826;28;20431;-65
2024/04/04 00:17:10;;;;;;;0.60;0.30;;;;;;;;;;5070511;28;20070;-63
2024/04/04 00:19:35;;;;;;;1.52;0.25;;;;;;;;;;5072054;28;20060;-64
2024/04/04 00:22:00;;;;;;;1.83;0.30;;;;;;;;;;5071923;28;20473;-67
2024/04/04 00:24:25;;;;;;;2.22;0.50;;;;;;;;;;5071985;28;20098;-64
2024/04/04 00:26:50;;;;;;;0.93;0.30;;;;;;;;;;4979614;28;20059;-65
2024/04/04 00:29:15;;;;;;;0.75;0.30;;;;;;;;;;4970405;28;20034;-63
2024/04/04 00:31:41;;;;;;;1.70;0.50;;;;;;;;;;4970239;28;20031;-66
2024/04/04 00:34:06;;;;;;;2.13;0.55;;;;;;;;;;4970005;28;20501;-67
2024/04/04 00:36:31;;;;;;;2.00;0.43;;;;;;;;;;4970305;28;20486;-64
2024/04/04 00:38:56;;;;;;;1.33;0.47;;;;;;;;;;4968812;28;20065;-64
2024/04/04 00:41:21;;;;;;;1.33;0.32;;;;;;;;;;4969933;28;20031;-65
2024/04/04 00:43:46;;;;;;;1.42;0.50;;;;;;;;;;4969911;28;20056;-66
2024/04/04 00:46:11;;;;;;;0.52;0.30;;;;;;;;;;4969367;28;20035;-64
2024/04/04 00:48:36;;;;;;;0.60;0.30;;;;;;;;;;4970471;28;20111;-64
2024/04/04 00:51:02;;;;;;;1.10;0.30;;;;;;;;;;4969971;28;20023;-65
2024/04/04 00:53:27;;;;;;;0.63;0.30;;;;;;;;;;4969722;28;20052;-65
2024/04/04 00:55:54;;;;;;;0.60;0.23;;;;;;;;;;4969753;28;20027;-66
2024/04/04 00:58:19;;;;;;;1.17;0.30;;;;;;;;;;4971165;28;20501;-64
2024/04/04 01:00:45;;;;;;;1.13;0.32;;;;;;;;;;4974180;28;20030;-64
2024/04/04 01:03:10;;;;;;;1.13;0.30;;;;;;;;;;5014036;28;20032;-64
2024/04/04 01:05:35;;;;;;;0.77;0.35;;;;;;;;;;5077014;28;20089;-66
2024/04/04 01:08:01;;;;;;;0.80;0.38;;;;;;;;;;5080618;28;20024;-64
2024/04/04 01:10:26;;;;;;;1.20;0.30;;;;;;;;;;5079381;28;20104;-68
2024/04/04 01:12:51;;;;;;;0.52;0.30;;;;;;;;;;5081560;28;20103;-64
2024/04/04 01:15:18;;;;;;;0.53;0.30;;;;;;;;;;5085993;28;20058;-65
2024/04/04 01:17:43;;;;;;;0.85;0.30;;;;;;;;;;5083885;28;20020;-64
2024/04/04 01:20:08;;;;;;;0.53;0.27;;;;;;;;;;5071961;28;20017;-64
2024/04/04 01:22:34;;;;;;;1.23;0.40;;;;;;;;;;5071493;28;20029;-63
2024/04/04 01:24:59;;;;;;;0.77;0.30;;;;;;;;;;5069918;28;20465;-64
2024/04/04 01:27:24;;;;;;;1.93;0.40;;;;;;;;;;5071788;28;20032;-64
2024/04/04 01:29:49;;;;;;;1.08;0.30;;;;;;;;;;5078143;28;20021;-65
2024/04/04 01:32:14;;;;;;;1.40;0.35;;;;;;;;;;5001157;28;20035;-63
2024/04/04 01:34:39;;;;;;;1.70;0.43;;;;;;;;;;4972913;28;20398;-64
2024/04/04 01:37:05;;;;;;;1.30;0.30;;;;;;;;;;4970009;28;20399;-63
2024/04/04 01:39:30;;;;;;;0.73;0.30;;;;;;;;;;4969745;28;20517;-65
2024/04/04 01:41:55;;;;;;;0.55;0.35;;;;;;;;;;4969481;28;20068;-64
2024/04/04 01:44:21;;;;;;;1.35;0.35;;;;;;;;;;4969624;28;20105;-63
2024/04/04 01:46:46;;;;;;;0.77;0.30;;;;;;;;;;4968950;28;20043;-65
2024/04/04 01:49:11;;;;;;;1.20;0.40;;;;;;;;;;4969813;28;20018;-64
2024/04/04 01:51:36;;;;;;;1.95;0.50;;;;;;;;;;4973141;28;20078;-65
2024/04/04 01:54:02;;;;;;;1.07;0.37;;;;;;;;;;4973025;28;20022;-64
2024/04/04 01:56:27;;;;;;;0.63;0.20;;;;;;;;;;4972437;28;20039;-66
2024/04/04 01:58:52;;;;;;;1.43;0.40;;;;;;;;;;4972861;28;20022;-66
2024/04/04 02:01:17;;;;;;;1.55;0.40;;;;;;;;;;4972597;28;20073;-63
2024/04/04 02:03:42;;;;;;;1.80;0.50;;;;;;;;;;5065337;28;20036;-66
2024/04/04 02:06:07;;;;;;;1.48;0.40;;;;;;;;;;5073949;28;20028;-63
2024/04/04 02:08:33;;;;;;;2.63;0.30;;;;;;;;;;5074882;28;20032;-65
2024/04/04 02:10:58;;;;;;;1.10;0.40;;;;;;;;;;5074814;28;20027;-66
2024/04/04 02:13:26;;;;;;;1.13;0.38;;;;;;;;;;5074533;28;20024;-63
2024/04/04 02:15:52;;;;;;;1.40;0.40;;;;;;;;;;5073747;28;20058;-64
2024/04/04 02:18:17;;;;;;;1.20;0.40;;;;;;;;;;5075750;28;20496;-63
2024/04/04 02:20:46;;;;;;;1.48;0.38;;;;;;;;;;5077393;28;20097;-65
2024/04/04 02:23:11;;;;;;;0.95;0.40;;;;;;;;;;5076252;28;20507;-64
2024/04/04 02:25:37;;;;;;;2.33;0.50;;;;;;;;;;5074614;28;20442;-63
2024/04/04 02:28:04;;;;;;;0.57;0.32;;;;;;;;;;5075071;28;20020;-64
2024/04/04 02:30:29;;;;;;;1.55;0.47;;;;;;;;;;5073635;28;20029;-63
2024/04/04 02:32:54;;;;;;;1.60;0.50;;;;;;;;;;5074551;28;20153;-65
2024/04/04 02:35:19;;;;;;;2.55;0.40;;;;;;;;;;5047876;28;20076;-64
2024/04/04 02:37:45;;;;;;;5.47;0.50;;;;;;;;;;4952950;28;20023;-64
2024/04/04 02:40:10;;;;;;;1.48;0.50;;;;;;;;;;4952977;28;20375;-65
2024/04/04 02:42:35;;;;;;;1.60;0.50;;;;;;;;;;4952682;28;20096;-65
2024/04/04 02:45:02;;;;;;;1.27;0.47;;;;;;;;;;4952384;28;20051;-64
2024/04/04 02:47:27;;;;;;;0.55;0.30;;;;;;;;;;4952556;28;20110;-66
2024/04/04 02:49:54;;;;;;;1.83;0.40;;;;;;;;;;4952288;28;20123;-65
2024/04/04 02:52:19;;;;;;;1.33;0.50;;;;;;;;;;4952402;28;20024;-67
2024/04/04 02:54:44;;;;;;;0.93;0.35;;;;;;;;;;4952324;28;20031;-66
2024/04/04 02:57:09;;;;;;;1.85;0.55;;;;;;;;;;4952238;28;20028;-65
2024/04/04 02:59:34;;;;;;;1.67;0.50;;;;;;;;;;4952460;28;20054;-65
2024/04/04 03:01:59;;;;;;;3.03;0.50;;;;;;;;;;5036126;28;20021;-64
2024/04/04 03:04:25;;;;;;;2.92;0.55;;;;;;;;;;5074191;28;20070;-63
2024/04/04 03:06:54;;;;;;;1.20;0.38;;;;;;;;;;5074707;28;20039;-64
2024/04/04 03:09:20;;;;;;;1.23;0.50;;;;;;;;;;5075574;28;20028;-63
2024/04/04 03:11:45;;;;;;;1.38;0.40;;;;;;;;;;5074312;28;20285;-65
2024/04/04 03:14:10;;;;;;;2.17;0.40;;;;;;;;;;5074648;28;20056;-65
2024/04/04 03:16:36;;;;;;;2.15;0.63;;;;;;;;;;5074593;28;20056;-64
2024/04/04 03:19:01;;;;;;;1.73;0.43;;;;;;;;;;5077655;28;20495;-64
2024/04/04 03:21:26;;;;;;;1.38;0.50;;;;;;;;;;5077931;28;20103;-65
2024/04/04 03:23:51;;;;;;;2.13;0.60;;;;;;;;;;5077262;28;20108;-66
2024/04/04 03:26:16;;;;;;;1.95;0.52;;;;;;;;;;5076747;28;20044;-64
2024/04/04 03:28:41;;;;;;;1.07;0.40;;;;;;;;;;5074239;28;20496;-66
2024/04/04 03:31:08;;;;;;;0.93;0.50;;;;;;;;;;5072646;28;20468;-64
2024/04/04 03:33:33;;;;;;;2.03;0.60;;;;;;;;;;5073155;28;20090;-64
2024/04/04 03:36:01;;;;;;;3.28;0.60;;;;;;;;;;5072746;28;20468;-63
2024/04/04 03:38:26;;;;;;;1.95;0.50;;;;;;;;;;5004172;28;20469;-65
2024/04/04 03:40:54;;;;;;;2.03;0.60;;;;;;;;;;4971704;28;20062;-64
2024/04/04 03:43:20;;;;;;;2.33;0.50;;;;;;;;;;4952011;28;20027;-65
2024/04/04 03:45:45;;;;;;;1.45;0.52;;;;;;;;;;4952177;28;20575;-62
2024/04/04 03:48:10;;;;;;;2.53;0.50;;;;;;;;;;4966637;28;20023;-65
2024/04/04 03:50:35;;;;;;;1.10;0.38;;;;;;;;;;4951739;28;20035;-63
2024/04/04 03:53:00;;;;;;;2.53;0.60;;;;;;;;;;4951876;28;20538;-64
2024/04/04 03:55:26;;;;;;;2.13;0.57;;;;;;;;;;4966579;28;20038;-63
2024/04/04 03:57:51;;;;;;;3.27;0.50;;;;;;;;;;4951951;28;20023;-64
2024/04/04 04:00:16;;;;;;;2.63;0.70;;;;;;;;;;4997525;28;20028;-66
2024/04/04 04:02:43;;;;;;;1.58;0.47;;;;;;;;;;4999711;28;20026;-64
2024/04/04 04:05:08;;;;;;;2.55;0.57;;;;;;;;;;4970482;28;20034;-63
2024/04/04 04:07:33;;;;;;;1.73;0.90;;;;;;;;;;4970526;28;20030;-64
2024/04/04 04:09:58;;;;;;;1.40;0.50;;;;;;;;;;4970405;28;20027;-66
2024/04/04 04:12:23;;;;;;;2.33;0.70;;;;;;;;;;4970196;28;20471;-65
2024/04/04 04:14:49;;;;;;;1.50;0.60;;;;;;;;;;4970031;28;20042;-65
2024/04/04 04:17:15;;;;;;;3.95;0.70;;;;;;;;;;4970675;28;20108;-65
2024/04/04 04:19:40;;;;;;;1.73;0.60;;;;;;;;;;4970509;28;20058;-64
2024/04/04 04:22:05;;;;;;;2.17;0.80;;;;;;;;;;4970442;28;20023;-64
2024/04/04 04:24:30;;;;;;;6.93;1.00;;;;;;;;;;4970263;28;20410;-63
2024/04/04 04:26:55;;;;;;;5.03;0.90;;;;;;;;;;4969994;28;20046;-65
2024/04/04 04:29:20;;;;;;;3.73;0.70;;;;;;;;;;4969169;28;20028;-64
2024/04/04 04:31:45;;;;;;;1.97;0.80;;;;;;;;;;4969875;28;20027;-64
2024/04/04 04:34:11;;;;;;;2.80;0.80;;;;;;;;;;4968879;28;20026;-63
2024/04/04 04:36:36;;;;;;;2.90;0.97;;;;;;;;;;4970021;28;20037;-63
2024/04/04 04:39:02;;;;;;;3.25;0.95;;;;;;;;;;4969753;28;20019;-64
2024/04/04 04:41:27;;;;;;;3.63;0.90;;;;;;;;;;4970397;28;20061;-64
2024/04/04 04:43:53;;;;;;;3.50;0.70;;;;;;;;;;4974663;28;20105;-63
2024/04/04 04:46:18;;;;;;;2.92;0.73;;;;;;;;;;4972604;28;20441;-64
2024/04/04 04:48:43;;;;;;;1.90;0.70;;;;;;;;;;4972570;28;20463;-65
2024/04/04 04:51:09;;;;;;;2.83;0.80;;;;;;;;;;4970829;28;20424;-63
2024/04/04 04:53:34;;;;;;;3.23;0.80;;;;;;;;;;4973043;28;20023;-65
2024/04/04 04:55:59;;;;;;;3.50;0.80;;;;;;;;;;4969741;28;20493;-65
2024/04/04 04:58:24;;;;;;;3.07;0.90;;;;;;;;;;4970161;28;20031;-64
2024/04/04 05:00:51;;;;;;;5.57;1.00;;;;;;;;;;4952933;28;20022;-64
2024/04/04 05:03:17;;;;;;;2.75;0.90;;;;;;;;;;4956194;28;20047;-62
2024/04/04 05:05:42;;;;;;;4.47;1.15;;;;;;;;;;4953984;28;20467;-64
2024/04/04 05:08:07;;;;;;;2.67;1.00;;;;;;;;;;4951058;28;20442;-64
2024/04/04 05:10:33;;;;;;;4.18;1.10;;;;;;;;;;4950811;28;20031;-65
2024/04/04 05:12:58;;;;;;;3.28;0.90;;;;;;;;;;4950445;28;20059;-65
2024/04/04 05:15:23;;;;;;;3.77;0.90;;;;;;;;;;4950363;28;20047;-63
2024/04/04 05:17:48;;;;;;;4.00;1.15;;;;;;;;;;4950299;28;20479;-64
2024/04/04 05:20:14;;;;;;;3.53;1.00;;;;;;;;;;4950596;28;20402;-64
2024/04/04 05:22:43;;;;;;;3.17;0.90;;;;;;;;;;4950701;28;20035;-64
2024/04/04 05:25:13;;;;;;;3.78;1.00;;;;;;;;;;4954159;28;20027;-64
2024/04/04 05:27:39;;;;;;;3.42;0.85;;;;;;;;;;4952158;28;20028;-64
2024/04/04 05:30:04;;;;;;;2.93;0.97;;;;;;;;;;4960155;28;20055;-64
2024/04/04 05:32:29;;;;;;;2.05;0.77;;;;;;;;;;4957217;28;20391;-63
2024/04/04 05:34:55;;;;;;;3.27;0.87;;;;;;;;;;4973130;28;20463;-64
2024/04/04 05:37:21;;;;;;;3.42;0.90;;;;;;;;;;4958167;28;20028;-64
2024/04/04 05:39:46;;;;;;;4.65;0.88;;;;;;;;;;4960791;28;20027;-68
2024/04/04 05:42:11;;;;;;;1.92;0.70;;;;;;;;;;4964631;28;20042;-66
2024/04/04 05:44:37;;;;;;;3.63;0.70;;;;;;;;;;4979659;28;20153;-66
2024/04/04 05:47:02;;;;;;;3.80;0.60;;;;;;;;;;4966426;28;20027;-64
2024/04/04 05:49:27;;;;;;;1.90;0.60;;;;;;;;;;4958291;28;20035;-63
2024/04/04 05:51:52;;;;;;;4.07;0.70;;;;;;;;;;4951629;28;20070;-65
2024/04/04 05:54:18;;;;;;;1.65;0.50;;;;;;;;;;4951446;29;20027;-63
2024/04/04 05:56:43;;;;;;;2.85;0.55;;;;;;;;;;4951320;28;20455;-65
2024/04/04 05:59:08;;;;;;;2.90;0.70;;;;;;;;;;4997209;28;20025;-64
2024/04/04 06:01:33;;;;;;;2.58;0.50;;;;;;;;;;5072407;28;20077;-64
2024/04/04 06:03:58;;;;;;;2.55;0.50;;;;;;;;;;4975301;28;20035;-63
2024/04/04 06:06:23;;;;;;;2.77;0.57;;;;;;;;;;4954463;28;20036;-63
2024/04/04 06:08:50;;;;;;;3.17;0.70;;;;;;;;;;4952965;28;20023;-66
2024/04/04 06:11:16;;;;;;;2.17;0.50;;;;;;;;;;4951616;28;20165;-65
2024/04/04 06:13:41;;;;;;;3.15;0.65;;;;;;;;;;4951704;28;20085;-65
2024/04/04 06:16:06;;;;;;;1.88;0.47;;;;;;;;;;4951582;28;20123;-65
2024/04/04 06:18:31;;;;;;;1.80;0.50;;;;;;;;;;4951628;28;20046;-64
2024/04/04 06:20:56;;;;;;;1.92;0.32;;;;;;;;;;4951500;28;20055;-64
2024/04/04 06:23:21;;;;;;;1.70;0.50;;;;;;;;;;4952170;28;20035;-63
2024/04/04 06:25:48;;;;;;;3.27;0.80;;;;;;;;;;4949392;28;20034;-64
2024/04/04 06:28:13;;;;;;;2.05;0.70;;;;;;;;;;4949798;28;20023;-65
2024/04/04 06:30:38;;;;;;;3.13;0.50;;;;;;;;;;4949343;28;20069;-63
2024/04/04 06:33:03;;;;;;;2.42;0.50;;;;;;;;;;4949671;28;20047;-64
2024/04/04 06:35:28;;;;;;;2.78;0.40;;;;;;;;;;4949244;28;20023;-64
2024/04/04 06:37:54;;;;;;;2.65;0.60;;;;;;;;;;4951912;28;20027;-64
2024/04/04 06:40:21;;;;;;;2.30;0.43;;;;;;;;;;4952593;28;20396;-65
2024/04/04 06:42:46;;;;;;;2.05;0.50;;;;;;;;;;4952737;28;20069;-66
2024/04/04 06:45:11;;;;;;;4.73;0.50;;;;;;;;;;4953125;28;20058;-65
2024/04/04 06:47:39;;;;;;;3.07;0.70;;;;;;;;;;4952517;28;20043;-64
2024/04/04 06:50:06;;;;;;;2.20;0.50;;;;;;;;;;4952691;28;20384;-64
2024/04/04 06:52:31;;;;;;;3.78;0.68;;;;;;;;;;4971286;28;20202;-63
2024/04/04 06:54:56;;;;;;;2.17;0.50;;;;;;;;;;4952188;28;20230;-64
2024/04/04 06:57:21;;;;;;;1.70;0.37;;;;;;;;;;4952666;28;20073;-66
2024/04/04 06:59:46;;;;;;;2.33;0.30;;;;;;;;;;5035725;28;20035;-63
2024/04/04 07:02:12;;;;;;;3.10;0.60;;;;;;;;;;5073499;28;20028;-63
2024/04/04 07:04:37;;;;;;;2.60;0.55;;;;;;;;;;4994204;28;20125;-63
2024/04/04 07:07:02;;;;;;;2.93;0.60;;;;;;;;;;4952375;28;20032;-65
2024/04/04 07:09:27;;;;;;;2.50;0.60;;;;;;;;;;4952288;28;20459;-63
2024/04/04 07:11:52;;;;;;;2.45;0.43;;;;;;;;;;4953394;28;20047;-63
2024/04/04 07:14:17;;;;;;;3.30;0.60;;;;;;;;;;4952121;28;20039;-66
2024/04/04 07:16:43;;;;;;;4.32;0.60;;;;;;;;;;4952294;28;20522;-64
2024/04/04 07:19:08;;;;;;;2.58;0.70;;;;;;;;;;4952048;28;20034;-64
2024/04/04 07:21:33;;;;;;;4.72;0.57;;;;;;;;;;4952305;28;20067;-64
2024/04/04 07:23:58;;;;;;;4.03;0.60;;;;;;;;;;4950853;28;20390;-63
2024/04/04 07:26:24;;;;;;;3.27;0.40;;;;;;;;;;4951524;28;20031;-66
2024/04/04 07:28:49;;;;;;;2.30;0.60;;;;;;;;;;4951803;28;20834;-65
2024/04/04 07:31:14;;;;;;;2.42;0.40;;;;;;;;;;4951895;28;20089;-65
2024/04/04 07:33:39;;;;;;;3.77;0.63;;;;;;;;;;4951885;28;20020;-62
2024/04/04 07:36:04;;;;;;;1.73;0.40;;;;;;;;;;4951903;28;20028;-64
2024/04/04 07:38:29;;;;;;;4.97;0.70;;;;;;;;;;4951184;28;20087;-63
2024/04/04 07:40:55;;;;;;;4.05;0.50;;;;;;;;;;4951407;28;20038;-63
2024/04/04 07:43:20;;;;;;;5.87;0.60;;;;;;;;;;4951583;28;20476;-63
2024/04/04 07:45:45;;;;;;;4.43;0.60;;;;;;;;;;4951247;28;20092;-63
2024/04/04 07:48:14;;;;;;;2.40;0.50;;;;;;;;;;4950883;28;20028;-66
2024/04/04 07:50:40;;;;;;;4.30;0.60;;;;;;;;;;4951603;29;20129;-64
2024/04/04 07:53:06;;;;;;;3.45;0.50;;;;;;;;;;4951284;28;20761;-64
2024/04/04 07:55:32;;;;;;;3.95;0.75;;;;;;;;;;4951478;28;20023;-62
2024/04/04 07:57:57;;;;;;;5.43;0.70;;;;;;;;;;4951795;28;20042;-63
2024/04/04 08:00:22;;;;;;;3.20;0.60;;;;;;;;;;5071265;28;20523;-63
2024/04/04 08:02:49;;;;;;;3.30;0.50;;;;;;;;;;5070787;28;20020;-64
2024/04/04 08:05:15;;;;;;;3.28;0.60;;;;;;;;;;5018491;28;20498;-63
2024/04/04 08:07:40;;;;;;;4.07;0.63;;;;;;;;;;4970953;28;20027;-63
2024/04/04 08:10:08;;;;;;;3.95;0.50;;;;;;;;;;4971134;28;20018;-64
2024/04/04 08:12:36;;;;;;;2.55;0.43;;;;;;;;;;4971754;28;20029;-63
2024/04/04 08:15:04;;;;;;;2.45;0.40;;;;;;;;;;4971517;28;20038;-65
2024/04/04 08:17:33;;;;;;;2.85;0.65;;;;;;;;;;4977150;28;20040;-64
2024/04/04 08:19:59;;;;;;;3.17;0.47;;;;;;;;;;4978778;28;20471;-65
2024/04/04 08:22:24;;;;;;;3.35;0.60;;;;;;;;;;4971832;28;20027;-65
2024/04/04 08:24:49;;;;;;;1.77;0.33;;;;;;;;;;4972026;28;20027;-65
2024/04/04 08:27:14;;;;;;;2.47;0.40;;;;;;;;;;4971544;28;20107;-64
2024/04/04 08:29:40;;;;;;;4.35;0.60;;;;;;;;;;4972901;28;20467;-65
2024/04/04 08:32:06;;;;;;;2.85;0.70;;;;;;;;;;4985151;28;20014;-65
2024/04/04 08:34:32;;;;;;;4.50;0.50;;;;;;;;;;4989290;28;20023;-65
2024/04/04 08:36:57;;;;;;;3.15;0.60;;;;;;;;;;4974408;28;20026;-65
2024/04/04 08:39:22;;;;;;;3.33;0.73;;;;;;;;;;4973339;28;20038;-65
2024/04/04 08:41:47;;;;;;;4.35;0.50;;;;;;;;;;4972433;28;20114;-66
2024/04/04 08:44:13;;;;;;;2.58;0.52;;;;;;;;;;4970401;28;20498;-64
2024/04/04 08:46:39;;;;;;;1.52;0.50;;;;;;;;;;4969907;28;20086;-64
2024/04/04 08:49:04;;;;;;;2.35;0.52;;;;;;;;;;4970613;28;20079;-65
2024/04/04 08:51:30;;;;;;;3.50;0.60;;;;;;;;;;4970400;28;20493;-63
2024/04/04 08:53:56;;;;;;;3.15;0.65;;;;;;;;;;4972518;28;20030;-65
2024/04/04 08:56:21;;;;;;;4.03;0.70;;;;;;;;;;4974753;28;20034;-65
2024/04/04 08:58:46;;;;;;;2.37;0.50;;;;;;;;;;4985936;28;20031;-67
2024/04/04 09:01:11;;;;;;;4.03;0.65;;;;;;;;;;4984413;28;20026;-65
2024/04/04 09:03:41;;;;;;;4.60;0.73;;;;;;;;;;4983354;28;20050;-65
2024/04/04 09:06:06;;;;;;;2.53;0.70;;;;;;;;;;4979852;28;20035;-67
2024/04/04 09:08:31;;;;;;;2.53;0.60;;;;;;;;;;4982305;28;20026;-65
2024/04/04 09:11:00;;;;;;;3.60;0.80;;;;;;;;;;4982115;28;20049;-64
2024/04/04 09:13:26;;;;;;;1.73;0.50;;;;;;;;;;4981208;28;20076;-66
2024/04/04 09:15:58;;;;;;;3.15;0.60;;;;;;;;;;4985638;28;20031;-63
2024/04/04 09:18:23;;;;;;;5.22;0.80;;;;;;;;;;4974747;28;20611;-64
2024/04/04 09:20:48;;;;;;;4.47;0.70;;;;;;;;;;4970364;28;20109;-65
2024/04/04 09:23:14;;;;;;;4.15;0.77;;;;;;;;;;4969936;28;20023;-64
2024/04/04 09:25:39;;;;;;;4.22;0.60;;;;;;;;;;4969757;28;20023;-65
2024/04/04 09:28:04;;;;;;;5.07;0.88;;;;;;;;;;4969808;28;20104;-64
2024/04/04 09:30:32;;;;;;;3.88;0.70;;;;;;;;;;4969743;28;20023;-64
2024/04/04 09:32:57;;;;;;;4.68;0.77;;;;;;;;;;4969610;28;20023;-65
2024/04/04 09:35:22;;;;;;;2.47;0.60;;;;;;;;;;4969802;28;20015;-64
2024/04/04 09:37:48;;;;;;;2.50;0.77;;;;;;;;;;4970160;28;20113;-65
2024/04/04 09:40:13;;;;;;;5.13;0.70;;;;;;;;;;4970221;28;20023;-63
2024/04/04 09:42:41;;;;;;;3.05;0.50;;;;;;;;;;4969617;28;20077;-65
2024/04/04 09:45:07;;;;;;;3.13;0.60;;;;;;;;;;4969471;28;20068;-65
2024/04/04 09:47:34;;;;;;;2.58;0.60;;;;;;;;;;4969313;28;20087;-66
2024/04/04 09:50:03;;;;;;;2.42;0.52;;;;;;;;;;4969395;28;20062;-63
2024/04/04 09:52:30;;;;;;;3.47;0.68;;;;;;;;;;4969248;28;20053;-65
2024/04/04 09:54:55;;;;;;;1.83;0.50;;;;;;;;;;4969079;28;20089;-64
2024/04/04 09:57:21;;;;;;;1.73;0.47;;;;;;;;;;4969500;28;20011;-65
2024/04/04 09:59:47;;;;;;;2.23;0.50;;;;;;;;;;5058256;28;20029;-66
2024/04/04 10:02:13;;;;;;;2.80;0.70;;;;;;;;;;5071112;28;20027;-65
2024/04/04 10:04:38;;;;;;;2.40;0.63;;;;;;;;;;5071556;28;20024;-65
2024/04/04 10:07:03;;;;;;;3.10;0.80;;;;;;;;;;5020740;28;20034;-66
2024/04/04 10:09:35;;;;;;;1.40;0.43;;;;;;;;;;4966189;28;20046;-65
2024/04/04 10:12:00;;;;;;;;;;;;;;;;;;4955371;28;20023;-63
2024/04/04 10:14:26;;;;;;;2.15;0.60;;;;;;;;;;4955697;28;19918;-68
2024/04/04 10:16:55;;;;;;;3.57;0.60;;;;;;;;;;4956837;28;20108;-67
2024/04/04 10:19:22;;;;;;;1.50;0.43;;;;;;;;;;4955232;28;20087;-65
2024/04/04 10:21:47;;;;;;;2.63;0.47;;;;;;;;;;4955260;28;20027;-66
2024/04/04 10:24:42;;;;;;;2.60;0.60;;;;;;;;;;4953760;28;20050;-66
2024/04/04 10:27:08;;;;;;;1.95;0.50;;;;;;;;;;4969127;28;20058;-66
2024/04/04 10:29:34;;;;;;;;;;;;;;;;;;4953088;28;20034;-65
2024/04/04 10:32:00;;;;;;;3.05;0.55;;;;;;;;;;4952559;28;19913;-66
2024/04/04 10:34:25;;;;;;;1.02;0.30;;;;;;;;;;4952780;28;20454;-65
2024/04/04 10:36:50;;;;;;;2.03;0.45;;;;;;;;;;4952631;28;20022;-65
2024/04/04 10:39:21;;;;;;;2.13;0.43;;;;;;;;;;4952680;28;20031;-65
2024/04/04 10:41:47;;;;;;;2.90;0.50;;;;;;;;;;4952590;28;20428;-68
2024/04/04 10:44:16;;;;;;;0.82;0.38;;;;;;;;;;4952149;28;20023;-65
2024/04/04 10:46:48;;;;;;;1.70;0.43;;;;;;;;;;4952461;28;20039;-64
2024/04/04 10:49:14;;;;;;;2.40;0.40;;;;;;;;;;4953885;28;20430;-64
2024/04/04 10:51:41;;;;;;;2.08;0.55;;;;;;;;;;4953970;28;20114;-64
2024/04/04 10:54:07;;;;;;;1.52;0.40;;;;;;;;;;4953102;28;20092;-66
2024/04/04 10:56:32;;;;;;;2.10;0.47;;;;;;;;;;4952063;28;20098;-67
2024/04/04 10:58:58;;;;;;;2.20;0.50;;;;;;;;;;4952714;28;20031;-64
2024/04/04 11:01:24;;;;;;;1.38;0.40;;;;;;;;;;4967079;28;20026;-64
2024/04/04 11:03:57;;;;;;;1.33;0.47;;;;;;;;;;4952249;28;20065;-63
2024/04/04 11:06:26;;;;;;;1.27;0.50;;;;;;;;;;4952282;28;20031;-65
2024/04/04 11:08:52;;;;;;;2.55;0.50;;;;;;;;;;4951623;28;20020;-66
2024/04/04 11:11:18;;;;;;;1.77;0.50;;;;;;;;;;4951919;28;20077;-65
2024/04/04 11:13:43;;;;;;;1.55;0.30;;;;;;;;;;4951900;28;20441;-64
2024/04/04 11:16:09;;;;;;;1.33;0.40;;;;;;;;;;4951797;28;20022;-65
2024/04/04 11:18:36;;;;;;;2.03;0.40;;;;;;;;;;4952211;28;20029;-65
2024/04/04 11:21:01;;;;;;;2.13;0.40;;;;;;;;;;4951890;28;20020;-63
2024/04/04 11:23:26;;;;;;;1.40;0.40;;;;;;;;;;4951095;28;20089;-65
2024/04/04 11:25:51;;;;;;;1.70;0.40;;;;;;;;;;4951704;28;20028;-65
2024/04/04 11:28:17;;;;;;;1.80;0.40;;;;;;;;;;4951956;28;20031;-67
2024/04/04 11:30:42;;;;;;;1.42;0.43;;;;;;;;;;4952158;28;20026;-66
2024/04/04 11:33:07;;;;;;;2.37;0.70;;;;;;;;;;4951481;28;20089;-64
2024/04/04 11:35:34;;;;;;;0.77;0.30;;;;;;;;;;4951623;28;20051;-66
2024/04/04 11:38:00;;;;;;;1.77;0.50;;;;;;;;;;4952270;28;20035;-66
2024/04/04 11:40:25;;;;;;;2.15;0.50;;;;;;;;;;4951677;28;20401;-64
2024/04/04 11:42:50;;;;;;;1.77;0.50;;;;;;;;;;4951860;28;20514;-65
2024/04/04 11:45:15;;;;;;;2.58;0.50;;;;;;;;;;4951378;28;20110;-65
2024/04/04 11:47:42;;;;;;;2.90;0.47;;;;;;;;;;4951637;28;20541;-66
2024/04/04 11:50:07;;;;;;;3.58;0.60;;;;;;;;;;4951263;28;20019;-65
2024/04/04 11:52:32;;;;;;;1.43;0.43;;;;;;;;;;4951036;28;20031;-66
2024/04/04 11:54:57;;;;;;;2.22;0.50;;;;;;;;;;4951641;28;20031;-66
2024/04/04 11:57:23;;;;;;;1.50;0.43;;;;;;;;;;5011478;28;20025;-64
2024/04/04 11:59:48;;;;;;;2.35;0.52;;;;;;;;;;5073926;28;20060;-65
2024/04/04 12:02:14;;;;;;;2.57;0.50;;;;;;;;;;5073597;28;20025;-64
2024/04/04 12:04:40;;;;;;;2.60;0.67;;;;;;;;;;5074794;28;20100;-64
2024/04/04 12:07:05;;;;;;;1.55;0.50;;;;;;;;;;5071974;28;20111;-64
2024/04/04 12:09:30;;;;;;;2.90;0.60;;;;;;;;;;5007555;28;20438;-66
2024/04/04 12:11:55;;;;;;;4.23;0.60;;;;;;;;;;4970962;28;20027;-65
2024/04/04 12:14:20;;;;;;;2.53;0.60;;;;;;;;;;4970431;28;20031;-66
2024/04/04 12:16:50;;;;;;;4.67;0.77;;;;;;;;;;4970121;28;20057;-66
2024/04/04 12:19:28;;;;;;;2.85;0.60;;;;;;;;;;4969137;28;20407;-67
2024/04/04 12:21:54;;;;;;;1.75;0.60;;;;;;;;;;4970474;28;20395;-65
2024/04/04 12:24:19;;;;;;;1.90;0.60;;;;;;;;;;4970343;28;20065;-64
2024/04/04 12:26:46;;;;;;;2.60;0.60;;;;;;;;;;4970068;28;20035;-65
2024/04/04 12:29:11;;;;;;;4.68;0.70;;;;;;;;;;4970176;28;20479;-66
2024/04/04 12:31:36;;;;;;;4.10;0.70;;;;;;;;;;4970072;28;20023;-65
2024/04/04 12:34:03;;;;;;;2.13;0.70;;;;;;;;;;4968237;28;20119;-65
2024/04/04 12:36:28;;;;;;;;;;;;;;;;;;4970155;28;20509;-67
2024/04/04 12:38:53;;;;;;;2.22;0.60;;;;;;;;;;4969983;28;20313;-65
2024/04/04 12:41:18;;;;;;;3.00;0.80;;;;;;;;;;4970122;28;20105;-64
2024/04/04 12:43:46;;;;;;;2.33;0.70;;;;;;;;;;4969826;28;20014;-66
2024/04/04 12:46:12;;;;;;;2.30;0.70;;;;;;;;;;4969498;28;20113;-67
2024/04/04 12:48:37;;;;;;;3.58;0.70;;;;;;;;;;4969986;28;20122;-65
2024/04/04 12:51:02;;;;;;;3.40;0.90;;;;;;;;;;4970002;28;20033;-67
2024/04/04 12:53:27;;;;;;;3.27;0.70;;;;;;;;;;4970054;28;20483;-66
2024/04/04 12:55:53;;;;;;;2.90;0.60;;;;;;;;;;4969970;28;20068;-64
2024/04/04 12:58:18;;;;;;;2.78;0.75;;;;;;;;;;5070556;28;20131;-65
2024/04/04 13:00:43;;;;;;;2.93;0.70;;;;;;;;;;5071516;28;20024;-65
2024/04/04 13:03:08;;;;;;;3.33;0.60;;;;;;;;;;5071301;28;20017;-66
2024/04/04 13:05:34;;;;;;;1.70;0.60;;;;;;;;;;5071353;28;20017;-64
2024/04/04 13:07:59;;;;;;;2.03;0.55;;;;;;;;;;5071199;28;20031;-65
2024/04/04 13:10:24;;;;;;;2.35;0.40;;;;;;;;;;4999978;28;20022;-67
2024/04/04 13:12:49;;;;;;;3.05;0.60;;;;;;;;;;4951034;28;20023;-65
2024/04/04 13:15:14;;;;;;;4.27;0.80;;;;;;;;;;4950082;28;20137;-65
2024/04/04 13:17:40;;;;;;;2.73;0.50;;;;;;;;;;4950618;28;20387;-66
2024/04/04 13:20:09;;;;;;;3.57;0.50;;;;;;;;;;4950368;28;20027;-66
2024/04/04 13:22:35;;;;;;;2.00;0.50;;;;;;;;;;4950192;28;20031;-65
2024/04/04 13:25:00;;;;;;;1.88;0.50;;;;;;;;;;4950151;28;20020;-65
2024/04/04 13:27:25;;;;;;;1.88;0.40;;;;;;;;;;4950562;28;20031;-66
2024/04/04 13:29:50;;;;;;;2.13;0.43;;;;;;;;;;4950034;28;20411;-65
2024/04/04 13:32:15;;;;;;;3.07;0.60;;;;;;;;;;4950039;28;20034;-66
2024/04/04 13:34:40;;;;;;;1.85;0.43;;;;;;;;;;4950355;28;20398;-65
2024/04/04 13:37:06;;;;;;;3.05;0.70;;;;;;;;;;4949861;28;20396;-65
2024/04/04 13:39:31;;;;;;;3.80;0.40;;;;;;;;;;4950609;28;20031;-67
2024/04/04 13:41:56;;;;;;;2.05;0.40;;;;;;;;;;4965934;28;20020;-65
2024/04/04 13:44:21;;;;;;;1.60;0.25;;;;;;;;;;4951309;28;20118;-66
2024/04/04 13:46:47;;;;;;;1.93;0.40;;;;;;;;;;4953030;28;20031;-66
2024/04/04 13:49:14;;;;;;;1.23;0.33;;;;;;;;;;4955059;28;20027;-64
2024/04/04 13:51:39;;;;;;;1.88;0.32;;;;;;;;;;4954851;28;20031;-63
2024/04/04 13:54:05;;;;;;;1.70;0.43;;;;;;;;;;4954768;28;20019;-66
2024/04/04 13:56:30;;;;;;;1.70;0.40;;;;;;;;;;4999513;28;20013;-64
2024/04/04 13:58:55;;;;;;;2.50;0.40;;;;;;;;;;5075594;28;20032;-67
2024/04/04 14:01:21;;;;;;;1.63;0.50;;;;;;;;;;5075653;28;20016;-64
2024/04/04 14:03:46;;;;;;;1.53;0.30;;;;;;;;;;5074826;28;20028;-70
2024/04/04 14:06:11;;;;;;;1.05;0.30;;;;;;;;;;5073863;28;20028;-64
2024/04/04 14:08:36;;;;;;;1.27;0.40;;;;;;;;;;5075021;28;20019;-64
2024/04/04 14:11:01;;;;;;;1.65;0.40;;;;;;;;;;5023833;28;20089;-65
2024/04/04 14:13:27;;;;;;;1.90;0.40;;;;;;;;;;4953006;28;20016;-66
2024/04/04 14:15:52;;;;;;;1.02;0.30;;;;;;;;;;4952388;28;20053;-66
2024/04/04 14:18:17;;;;;;;2.27;0.30;;;;;;;;;;4953119;28;20042;-64
2024/04/04 14:20:42;;;;;;;2.03;0.40;;;;;;;;;;4968101;28;20065;-65
2024/04/04 14:23:08;;;;;;;3.65;0.40;;;;;;;;;;4953572;28;20023;-64
2024/04/04 14:25:33;;;;;;;1.37;0.30;;;;;;;;;;4953646;28;20035;-64
2024/04/04 14:27:59;;;;;;;2.13;0.47;;;;;;;;;;4954186;28;20039;-65
2024/04/04 14:30:24;;;;;;;1.90;0.40;;;;;;;;;;4960772;28;20035;-66
2024/04/04 14:32:49;;;;;;;1.30;0.30;;;;;;;;;;4960253;28;20051;-64